sensor_id;sensor_type;location;lat;lon;timestamp;temperature;humidity
12156;DHT22;6141;49.092;8.516;2023-06-05T00:01:39;15.70;31.30
12156;DHT22;6141;49.092;8.516;2023-06-05T00:04:07;15.40;31.80
12156;DHT22;6141;49.092;8.516;2023-06-05T00:06:36;15.70;31.30
12156;DHT22;6141;49.092;8.516;2023-06-05T00:09:05;15.50;31.50
12156;DHT22;6141;49.092;8.516;2023-06-05T00:11:34;15.20;32.60
12156;DHT22;6141;49.092;8.516;2023-06-05T00:14:03;15.30;32.70
12156;DHT22;6141;49.092;8.516;2023-06-05T00:16:33;15.60;31.40
12156;DHT22;6141;49.092;8.516;2023-06-05T00:19:02;15.90;30.50
12156;DHT22;6141;49.092;8.516;2023-06-05T00:21:31;16.10;29.80
12156;DHT22;6141;49.092;8.516;2023-06-05T00:23:59;16.20;30.30
12156;DHT22;6141;49.092;8.516;2023-06-05T00:26:28;15.60;31.20
12156;DHT22;6141;49.092;8.516;2023-06-05T00:28:56;15.20;31.90
12156;DHT22;6141;49.092;8.516;2023-06-05T00:31:25;14.70;33.80
12156;DHT22;6141;49.092;8.516;2023-06-05T00:33:54;14.60;34.40
12156;DHT22;6141;49.092;8.516;2023-06-05T00:36:23;14.70;34.70
12156;DHT22;6141;49.092;8.516;2023-06-05T00:38:51;14.70;34.60
12156;DHT22;6141;49.092;8.516;2023-06-05T00:41:21;14.60;35.10
12156;DHT22;6141;49.092;8.516;2023-06-05T00:43:49;14.60;35.10
12156;DHT22;6141;49.092;8.516;2023-06-05T00:46:20;14.70;34.60
12156;DHT22;6141;49.092;8.516;2023-06-05T00:48:49;15.00;33.40
12156;DHT22;6141;49.092;8.516;2023-06-05T00:51:19;15.10;32.70
12156;DHT22;6141;49.092;8.516;2023-06-05T00:53:48;15.00;33.10
12156;DHT22;6141;49.092;8.516;2023-06-05T00:56:18;14.50;34.40
12156;DHT22;6141;49.092;8.516;2023-06-05T00:58:48;14.20;35.10
12156;DHT22;6141;49.092;8.516;2023-06-05T01:01:17;14.30;35.70
12156;DHT22;6141;49.092;8.516;2023-06-05T01:03:48;14.40;35.20
12156;DHT22;6141;49.092;8.516;2023-06-05T01:06:16;14.40;34.90
12156;DHT22;6141;49.092;8.516;2023-06-05T01:08:48;14.90;33.50
12156;DHT22;6141;49.092;8.516;2023-06-05T01:11:22;15.00;33.40
12156;DHT22;6141;49.092;8.516;2023-06-05T01:14:11;14.60;34.10
12156;DHT22;6141;49.092;8.516;2023-06-05T01:16:45;14.30;35.10
12156;DHT22;6141;49.092;8.516;2023-06-05T01:19:15;14.10;36.20
12156;DHT22;6141;49.092;8.516;2023-06-05T01:21:44;13.90;36.00
12156;DHT22;6141;49.092;8.516;2023-06-05T01:24:14;14.50;34.60
12156;DHT22;6141;49.092;8.516;2023-06-05T01:26:50;14.90;32.60
12156;DHT22;6141;49.092;8.516;2023-06-05T01:29:24;15.00;33.30
12156;DHT22;6141;49.092;8.516;2023-06-05T01:32:01;15.10;33.40
12156;DHT22;6141;49.092;8.516;2023-06-05T01:34:34;14.90;33.70
12156;DHT22;6141;49.092;8.516;2023-06-05T01:37:05;14.80;34.20
12156;DHT22;6141;49.092;8.516;2023-06-05T01:39:38;14.60;34.80
12156;DHT22;6141;49.092;8.516;2023-06-05T01:42:07;14.20;36.30
12156;DHT22;6141;49.092;8.516;2023-06-05T01:44:36;14.10;36.20
12156;DHT22;6141;49.092;8.516;2023-06-05T01:47:06;13.80;37.00
12156;DHT22;6141;49.092;8.516;2023-06-05T01:49:35;13.70;37.60
12156;DHT22;6141;49.092;8.516;2023-06-05T01:52:04;13.70;37.80
12156;DHT22;6141;49.092;8.516;2023-06-05T01:54:34;13.60;38.00
12156;DHT22;6141;49.092;8.516;2023-06-05T01:57:04;13.60;38.50
12156;DHT22;6141;49.092;8.516;2023-06-05T01:59:33;13.40;38.60
12156;DHT22;6141;49.092;8.516;2023-06-05T02:02:02;13.30;39.10
12156;DHT22;6141;49.092;8.516;2023-06-05T02:04:31;13.10;39.90
12156;DHT22;6141;49.092;8.516;2023-06-05T02:06:59;13.00;40.60
12156;DHT22;6141;49.092;8.516;2023-06-05T02:09:31;13.10;40.40
12156;DHT22;6141;49.092;8.516;2023-06-05T02:12:01;13.10;41.60
12156;DHT22;6141;49.092;8.516;2023-06-05T02:14:33;13.10;41.10
12156;DHT22;6141;49.092;8.516;2023-06-05T02:17:04;13.30;40.50
12156;DHT22;6141;49.092;8.516;2023-06-05T02:19:35;13.50;39.50
12156;DHT22;6141;49.092;8.516;2023-06-05T02:22:10;13.50;39.30
12156;DHT22;6141;49.092;8.516;2023-06-05T02:24:41;13.60;38.80
12156;DHT22;6141;49.092;8.516;2023-06-05T02:27:10;13.30;39.20
12156;DHT22;6141;49.092;8.516;2023-06-05T02:29:41;13.50;38.80
12156;DHT22;6141;49.092;8.516;2023-06-05T02:32:09;13.20;39.10
12156;DHT22;6141;49.092;8.516;2023-06-05T02:34:38;13.10;39.80
12156;DHT22;6141;49.092;8.516;2023-06-05T02:37:07;13.10;39.70
12156;DHT22;6141;49.092;8.516;2023-06-05T02:39:40;13.10;39.70
12156;DHT22;6141;49.092;8.516;2023-06-05T02:42:08;13.10;39.50
12156;DHT22;6141;49.092;8.516;2023-06-05T02:44:41;13.50;37.70
12156;DHT22;6141;49.092;8.516;2023-06-05T02:47:09;13.60;38.20
12156;DHT22;6141;49.092;8.516;2023-06-05T02:49:38;13.70;36.70
12156;DHT22;6141;49.092;8.516;2023-06-05T02:52:07;14.30;35.00
12156;DHT22;6141;49.092;8.516;2023-06-05T02:54:37;14.60;34.10
12156;DHT22;6141;49.092;8.516;2023-06-05T02:57:09;14.70;33.30
12156;DHT22;6141;49.092;8.516;2023-06-05T02:59:38;14.60;33.00
12156;DHT22;6141;49.092;8.516;2023-06-05T03:02:14;14.60;32.80
12156;DHT22;6141;49.092;8.516;2023-06-05T03:04:46;14.40;33.60
12156;DHT22;6141;49.092;8.516;2023-06-05T03:07:16;14.10;34.40
12156;DHT22;6141;49.092;8.516;2023-06-05T03:09:45;13.90;35.40
12156;DHT22;6141;49.092;8.516;2023-06-05T03:12:14;14.00;36.00
12156;DHT22;6141;49.092;8.516;2023-06-05T03:14:43;13.90;36.00
12156;DHT22;6141;49.092;8.516;2023-06-05T03:17:11;13.60;35.60
12156;DHT22;6141;49.092;8.516;2023-06-05T03:19:41;13.70;35.70
12156;DHT22;6141;49.092;8.516;2023-06-05T03:22:10;14.30;33.60
12156;DHT22;6141;49.092;8.516;2023-06-05T03:24:41;14.70;32.20
12156;DHT22;6141;49.092;8.516;2023-06-05T03:27:11;15.20;30.80
12156;DHT22;6141;49.092;8.516;2023-06-05T03:29:40;15.50;31.10
12156;DHT22;6141;49.092;8.516;2023-06-05T03:32:10;15.70;30.50
12156;DHT22;6141;49.092;8.516;2023-06-05T03:34:38;15.60;29.80
12156;DHT22;6141;49.092;8.516;2023-06-05T03:37:12;15.60;29.70
12156;DHT22;6141;49.092;8.516;2023-06-05T03:39:41;15.40;29.60
12156;DHT22;6141;49.092;8.516;2023-06-05T03:42:11;15.10;31.00
12156;DHT22;6141;49.092;8.516;2023-06-05T03:44:40;14.90;32.70
12156;DHT22;6141;49.092;8.516;2023-06-05T03:47:08;15.00;31.10
12156;DHT22;6141;49.092;8.516;2023-06-05T03:49:38;15.40;31.00
12156;DHT22;6141;49.092;8.516;2023-06-05T03:52:16;15.70;30.20
12156;DHT22;6141;49.092;8.516;2023-06-05T03:54:45;15.90;30.30
12156;DHT22;6141;49.092;8.516;2023-06-05T03:57:15;16.10;29.90
12156;DHT22;6141;49.092;8.516;2023-06-05T03:59:43;16.20;29.80
12156;DHT22;6141;49.092;8.516;2023-06-05T04:02:12;16.30;30.00
12156;DHT22;6141;49.092;8.516;2023-06-05T04:04:41;16.00;30.50
12156;DHT22;6141;49.092;8.516;2023-06-05T04:07:09;15.50;31.10
12156;DHT22;6141;49.092;8.516;2023-06-05T04:09:40;15.40;31.70
12156;DHT22;6141;49.092;8.516;2023-06-05T04:12:09;15.10;33.10
12156;DHT22;6141;49.092;8.516;2023-06-05T04:14:39;14.60;35.10
12156;DHT22;6141;49.092;8.516;2023-06-05T04:17:07;14.40;36.40
12156;DHT22;6141;49.092;8.516;2023-06-05T04:19:38;14.40;36.40
12156;DHT22;6141;49.092;8.516;2023-06-05T04:22:07;14.10;37.50
12156;DHT22;6141;49.092;8.516;2023-06-05T04:24:35;13.90;38.80
12156;DHT22;6141;49.092;8.516;2023-06-05T04:27:07;14.00;39.20
12156;DHT22;6141;49.092;8.516;2023-06-05T04:29:36;14.10;38.30
12156;DHT22;6141;49.092;8.516;2023-06-05T04:32:05;14.30;38.40
12156;DHT22;6141;49.092;8.516;2023-06-05T04:34:34;14.20;39.10
12156;DHT22;6141;49.092;8.516;2023-06-05T04:37:02;14.10;39.40
12156;DHT22;6141;49.092;8.516;2023-06-05T04:39:31;14.00;40.40
12156;DHT22;6141;49.092;8.516;2023-06-05T04:42:00;14.10;40.30
12156;DHT22;6141;49.092;8.516;2023-06-05T04:44:44;14.30;39.50
12156;DHT22;6141;49.092;8.516;2023-06-05T04:47:13;14.60;39.30
12156;DHT22;6141;49.092;8.516;2023-06-05T04:49:41;14.60;38.30
12156;DHT22;6141;49.092;8.516;2023-06-05T04:52:10;15.00;37.10
12156;DHT22;6141;49.092;8.516;2023-06-05T04:54:40;15.20;36.50
12156;DHT22;6141;49.092;8.516;2023-06-05T04:57:09;15.40;36.20
12156;DHT22;6141;49.092;8.516;2023-06-05T04:59:39;15.60;35.40
12156;DHT22;6141;49.092;8.516;2023-06-05T05:02:10;15.90;34.20
12156;DHT22;6141;49.092;8.516;2023-06-05T05:04:42;16.20;32.60
12156;DHT22;6141;49.092;8.516;2023-06-05T05:07:13;16.30;32.20
12156;DHT22;6141;49.092;8.516;2023-06-05T05:09:44;16.50;32.10
12156;DHT22;6141;49.092;8.516;2023-06-05T05:12:16;16.60;32.20
12156;DHT22;6141;49.092;8.516;2023-06-05T05:14:44;16.60;32.30
12156;DHT22;6141;49.092;8.516;2023-06-05T05:17:15;16.60;33.00
12156;DHT22;6141;49.092;8.516;2023-06-05T05:19:47;16.70;31.40
12156;DHT22;6141;49.092;8.516;2023-06-05T05:22:16;16.80;31.40
12156;DHT22;6141;49.092;8.516;2023-06-05T05:24:47;17.00;30.30
12156;DHT22;6141;49.092;8.516;2023-06-05T05:27:16;17.10;29.40
12156;DHT22;6141;49.092;8.516;2023-06-05T05:29:46;17.30;29.30
12156;DHT22;6141;49.092;8.516;2023-06-05T05:32:16;17.40;27.40
12156;DHT22;6141;49.092;8.516;2023-06-05T05:34:45;17.40;28.60
12156;DHT22;6141;49.092;8.516;2023-06-05T05:37:15;17.50;28.10
12156;DHT22;6141;49.092;8.516;2023-06-05T05:39:44;17.50;28.80
12156;DHT22;6141;49.092;8.516;2023-06-05T05:42:12;17.50;28.40
12156;DHT22;6141;49.092;8.516;2023-06-05T05:44:41;17.60;28.80
12156;DHT22;6141;49.092;8.516;2023-06-05T05:47:11;17.60;27.50
12156;DHT22;6141;49.092;8.516;2023-06-05T05:49:41;17.40;28.30
12156;DHT22;6141;49.092;8.516;2023-06-05T05:52:09;17.50;28.30
12156;DHT22;6141;49.092;8.516;2023-06-05T05:54:38;17.50;28.90
12156;DHT22;6141;49.092;8.516;2023-06-05T05:57:06;17.50;28.10
12156;DHT22;6141;49.092;8.516;2023-06-05T05:59:35;17.60;27.50
12156;DHT22;6141;49.092;8.516;2023-06-05T06:02:05;17.60;26.70
12156;DHT22;6141;49.092;8.516;2023-06-05T06:04:37;17.40;26.90
12156;DHT22;6141;49.092;8.516;2023-06-05T06:07:07;17.30;27.20
12156;DHT22;6141;49.092;8.516;2023-06-05T06:09:35;17.40;26.20
12156;DHT22;6141;49.092;8.516;2023-06-05T06:12:06;17.10;24.50
12156;DHT22;6141;49.092;8.516;2023-06-05T06:14:35;17.10;26.50
12156;DHT22;6141;49.092;8.516;2023-06-05T06:17:04;16.90;25.10
12156;DHT22;6141;49.092;8.516;2023-06-05T06:19:37;17.10;24.50
12156;DHT22;6141;49.092;8.516;2023-06-05T06:22:07;17.20;25.30
12156;DHT22;6141;49.092;8.516;2023-06-05T06:24:39;17.20;24.60
12156;DHT22;6141;49.092;8.516;2023-06-05T06:27:09;17.40;24.10
12156;DHT22;6141;49.092;8.516;2023-06-05T06:29:47;17.60;23.30
12156;DHT22;6141;49.092;8.516;2023-06-05T06:32:18;17.50;23.10
12156;DHT22;6141;49.092;8.516;2023-06-05T06:34:47;17.70;24.00
12156;DHT22;6141;49.092;8.516;2023-06-05T06:37:17;17.80;23.80
12156;DHT22;6141;49.092;8.516;2023-06-05T06:39:47;18.20;22.90
12156;DHT22;6141;49.092;8.516;2023-06-05T06:42:15;18.50;21.80
12156;DHT22;6141;49.092;8.516;2023-06-05T06:44:53;18.70;21.50
12156;DHT22;6141;49.092;8.516;2023-06-05T06:47:24;18.90;21.30
12156;DHT22;6141;49.092;8.516;2023-06-05T06:49:53;19.20;21.80
12156;DHT22;6141;49.092;8.516;2023-06-05T06:52:24;19.30;21.50
12156;DHT22;6141;49.092;8.516;2023-06-05T06:54:52;19.60;21.00
12156;DHT22;6141;49.092;8.516;2023-06-05T06:57:22;19.70;20.20
12156;DHT22;6141;49.092;8.516;2023-06-05T06:59:50;20.00;19.60
12156;DHT22;6141;49.092;8.516;2023-06-05T07:02:24;20.30;19.10
12156;DHT22;6141;49.092;8.516;2023-06-05T07:04:53;20.30;19.40
12156;DHT22;6141;49.092;8.516;2023-06-05T07:07:24;20.30;19.10
12156;DHT22;6141;49.092;8.516;2023-06-05T07:09:54;20.50;20.20
12156;DHT22;6141;49.092;8.516;2023-06-05T07:12:24;20.50;19.30
12156;DHT22;6141;49.092;8.516;2023-06-05T07:14:53;20.80;19.50
12156;DHT22;6141;49.092;8.516;2023-06-05T07:17:22;20.90;18.60
12156;DHT22;6141;49.092;8.516;2023-06-05T07:19:51;20.90;18.40
12156;DHT22;6141;49.092;8.516;2023-06-05T07:22:20;20.90;19.60
12156;DHT22;6141;49.092;8.516;2023-06-05T07:24:49;20.60;18.10
12156;DHT22;6141;49.092;8.516;2023-06-05T07:27:18;20.80;19.60
12156;DHT22;6141;49.092;8.516;2023-06-05T07:29:47;21.00;19.70
12156;DHT22;6141;49.092;8.516;2023-06-05T07:32:18;21.30;18.10
12156;DHT22;6141;49.092;8.516;2023-06-05T07:34:47;21.60;18.50
12156;DHT22;6141;49.092;8.516;2023-06-05T07:37:21;21.70;18.20
12156;DHT22;6141;49.092;8.516;2023-06-05T07:39:51;21.90;18.00
12156;DHT22;6141;49.092;8.516;2023-06-05T07:42:21;21.90;17.80
12156;DHT22;6141;49.092;8.516;2023-06-05T07:44:50;22.00;18.20
12156;DHT22;6141;49.092;8.516;2023-06-05T07:47:20;22.20;18.30
12156;DHT22;6141;49.092;8.516;2023-06-05T07:49:56;22.30;17.70
12156;DHT22;6141;49.092;8.516;2023-06-05T07:52:26;22.60;17.80
12156;DHT22;6141;49.092;8.516;2023-06-05T07:54:56;22.70;17.40
12156;DHT22;6141;49.092;8.516;2023-06-05T07:57:26;22.80;17.20
12156;DHT22;6141;49.092;8.516;2023-06-05T07:59:57;22.80;18.20
12156;DHT22;6141;49.092;8.516;2023-06-05T08:02:26;22.90;17.70
12156;DHT22;6141;49.092;8.516;2023-06-05T08:04:55;23.20;17.00
12156;DHT22;6141;49.092;8.516;2023-06-05T08:07:25;23.10;16.40
12156;DHT22;6141;49.092;8.516;2023-06-05T08:09:56;23.30;16.10
12156;DHT22;6141;49.092;8.516;2023-06-05T08:12:25;23.40;16.20
12156;DHT22;6141;49.092;8.516;2023-06-05T08:14:54;23.30;16.10
12156;DHT22;6141;49.092;8.516;2023-06-05T08:17:23;23.40;16.20
12156;DHT22;6141;49.092;8.516;2023-06-05T08:19:52;23.60;16.30
12156;DHT22;6141;49.092;8.516;2023-06-05T08:22:23;23.70;16.40
12156;DHT22;6141;49.092;8.516;2023-06-05T08:24:51;23.80;15.40
12156;DHT22;6141;49.092;8.516;2023-06-05T08:27:22;24.00;14.10
12156;DHT22;6141;49.092;8.516;2023-06-05T08:29:52;24.00;15.60
12156;DHT22;6141;49.092;8.516;2023-06-05T08:32:21;24.00;15.40
12156;DHT22;6141;49.092;8.516;2023-06-05T08:34:49;24.10;15.20
12156;DHT22;6141;49.092;8.516;2023-06-05T08:37:18;24.20;14.80
12156;DHT22;6141;49.092;8.516;2023-06-05T08:39:47;24.20;14.40
12156;DHT22;6141;49.092;8.516;2023-06-05T08:42:15;24.20;14.20
12156;DHT22;6141;49.092;8.516;2023-06-05T08:44:47;24.50;15.10
12156;DHT22;6141;49.092;8.516;2023-06-05T08:47:28;24.60;14.60
12156;DHT22;6141;49.092;8.516;2023-06-05T08:50:02;24.50;14.70
12156;DHT22;6141;49.092;8.516;2023-06-05T08:52:33;24.70;14.60
12156;DHT22;6141;49.092;8.516;2023-06-05T08:55:03;24.70;14.70
12156;DHT22;6141;49.092;8.516;2023-06-05T08:57:33;24.70;14.60
12156;DHT22;6141;49.092;8.516;2023-06-05T09:00:06;24.80;15.00
12156;DHT22;6141;49.092;8.516;2023-06-05T09:02:40;24.90;15.40
12156;DHT22;6141;49.092;8.516;2023-06-05T09:05:12;24.90;15.60
12156;DHT22;6141;49.092;8.516;2023-06-05T09:07:40;24.90;14.50
12156;DHT22;6141;49.092;8.516;2023-06-05T09:10:22;24.90;13.50
12156;DHT22;6141;49.092;8.516;2023-06-05T09:12:55;25.00;15.70
12156;DHT22;6141;49.092;8.516;2023-06-05T09:15:26;25.20;14.40
12156;DHT22;6141;49.092;8.516;2023-06-05T09:18:05;25.20;15.30
12156;DHT22;6141;49.092;8.516;2023-06-05T09:20:38;25.20;14.80
12156;DHT22;6141;49.092;8.516;2023-06-05T09:23:22;25.40;14.80
12156;DHT22;6141;49.092;8.516;2023-06-05T09:25:53;25.40;14.80
12156;DHT22;6141;49.092;8.516;2023-06-05T09:28:22;25.50;15.90
12156;DHT22;6141;49.092;8.516;2023-06-05T09:30:59;25.50;15.30
12156;DHT22;6141;49.092;8.516;2023-06-05T09:33:30;25.60;15.10
12156;DHT22;6141;49.092;8.516;2023-06-05T09:36:03;25.80;14.60
12156;DHT22;6141;49.092;8.516;2023-06-05T09:38:33;25.90;14.20
12156;DHT22;6141;49.092;8.516;2023-06-05T09:41:04;26.00;15.10
12156;DHT22;6141;49.092;8.516;2023-06-05T09:43:36;26.10;15.50
12156;DHT22;6141;49.092;8.516;2023-06-05T09:46:11;26.10;15.10
12156;DHT22;6141;49.092;8.516;2023-06-05T09:48:40;26.30;15.70
12156;DHT22;6141;49.092;8.516;2023-06-05T09:51:12;26.40;16.20
12156;DHT22;6141;49.092;8.516;2023-06-05T09:53:43;26.40;15.40
12156;DHT22;6141;49.092;8.516;2023-06-05T09:56:13;26.40;14.40
12156;DHT22;6141;49.092;8.516;2023-06-05T09:58:46;26.00;16.00
12156;DHT22;6141;49.092;8.516;2023-06-05T10:01:17;26.30;15.70
12156;DHT22;6141;49.092;8.516;2023-06-05T10:03:56;26.60;15.70
12156;DHT22;6141;49.092;8.516;2023-06-05T10:06:28;26.60;18.00
12156;DHT22;6141;49.092;8.516;2023-06-05T10:08:57;26.90;17.90
12156;DHT22;6141;49.092;8.516;2023-06-05T10:11:27;26.80;15.80
12156;DHT22;6141;49.092;8.516;2023-06-05T10:13:56;26.80;16.50
12156;DHT22;6141;49.092;8.516;2023-06-05T10:16:28;26.60;16.80
12156;DHT22;6141;49.092;8.516;2023-06-05T10:18:57;26.80;17.60
12156;DHT22;6141;49.092;8.516;2023-06-05T10:21:26;27.00;17.60
12156;DHT22;6141;49.092;8.516;2023-06-05T10:23:58;27.20;17.20
12156;DHT22;6141;49.092;8.516;2023-06-05T10:29:48;27.20;16.00
12156;DHT22;6141;49.092;8.516;2023-06-05T10:32:33;27.20;18.40
12156;DHT22;6141;49.092;8.516;2023-06-05T10:35:12;27.10;17.20
12156;DHT22;6141;49.092;8.516;2023-06-05T10:37:52;27.30;16.30
12156;DHT22;6141;49.092;8.516;2023-06-05T10:40:24;27.60;15.70
12156;DHT22;6141;49.092;8.516;2023-06-05T10:42:53;27.60;15.90
12156;DHT22;6141;49.092;8.516;2023-06-05T10:45:31;27.70;14.90
12156;DHT22;6141;49.092;8.516;2023-06-05T10:48:02;27.80;17.10
12156;DHT22;6141;49.092;8.516;2023-06-05T10:50:31;27.60;15.70
12156;DHT22;6141;49.092;8.516;2023-06-05T10:53:00;27.60;15.10
12156;DHT22;6141;49.092;8.516;2023-06-05T10:55:41;27.60;15.30
12156;DHT22;6141;49.092;8.516;2023-06-05T10:58:12;27.30;14.50
12156;DHT22;6141;49.092;8.516;2023-06-05T11:01:16;27.10;16.50
12156;DHT22;6141;49.092;8.516;2023-06-05T11:03:57;27.40;15.50
12156;DHT22;6141;49.092;8.516;2023-06-05T11:06:26;27.50;13.40
12156;DHT22;6141;49.092;8.516;2023-06-05T11:09:12;27.50;13.40
12156;DHT22;6141;49.092;8.516;2023-06-05T11:11:57;27.70;11.70
12156;DHT22;6141;49.092;8.516;2023-06-05T11:14:44;27.60;12.30
12156;DHT22;6141;49.092;8.516;2023-06-05T11:17:27;27.80;12.60
12156;DHT22;6141;49.092;8.516;2023-06-05T11:19:57;27.80;12.20
12156;DHT22;6141;49.092;8.516;2023-06-05T11:22:26;27.80;12.10
12156;DHT22;6141;49.092;8.516;2023-06-05T11:25:25;27.60;12.60
12156;DHT22;6141;49.092;8.516;2023-06-05T11:27:55;27.80;11.90
12156;DHT22;6141;49.092;8.516;2023-06-05T11:30:26;28.00;13.70
12156;DHT22;6141;49.092;8.516;2023-06-05T11:33:13;28.30;11.60
12156;DHT22;6141;49.092;8.516;2023-06-05T11:35:45;28.00;11.90
12156;DHT22;6141;49.092;8.516;2023-06-05T11:38:15;28.00;11.60
12156;DHT22;6141;49.092;8.516;2023-06-05T11:40:48;28.10;12.60
12156;DHT22;6141;49.092;8.516;2023-06-05T11:43:17;27.70;12.80
12156;DHT22;6141;49.092;8.516;2023-06-05T11:45:50;27.50;12.40
12156;DHT22;6141;49.092;8.516;2023-06-05T11:48:19;27.60;12.30
12156;DHT22;6141;49.092;8.516;2023-06-05T11:50:55;28.00;9.70
12156;DHT22;6141;49.092;8.516;2023-06-05T11:53:27;28.00;12.10
12156;DHT22;6141;49.092;8.516;2023-06-05T11:55:57;28.20;10.40
12156;DHT22;6141;49.092;8.516;2023-06-05T11:58:38;28.40;10.50
12156;DHT22;6141;49.092;8.516;2023-06-05T12:01:11;28.70;11.30
12156;DHT22;6141;49.092;8.516;2023-06-05T12:03:43;28.30;9.10
12156;DHT22;6141;49.092;8.516;2023-06-05T12:06:14;28.10;10.10
12156;DHT22;6141;49.092;8.516;2023-06-05T12:08:46;28.30;10.90
12156;DHT22;6141;49.092;8.516;2023-06-05T12:11:23;28.30;8.60
12156;DHT22;6141;49.092;8.516;2023-06-05T12:13:54;28.40;11.70
12156;DHT22;6141;49.092;8.516;2023-06-05T12:16:31;28.40;7.60
12156;DHT22;6141;49.092;8.516;2023-06-05T12:19:02;28.60;9.00
12156;DHT22;6141;49.092;8.516;2023-06-05T12:21:43;28.80;7.60
12156;DHT22;6141;49.092;8.516;2023-06-05T12:24:13;29.00;6.20
12156;DHT22;6141;49.092;8.516;2023-06-05T12:26:51;28.90;6.80
12156;DHT22;6141;49.092;8.516;2023-06-05T12:29:25;28.90;6.90
12156;DHT22;6141;49.092;8.516;2023-06-05T12:31:56;28.50;7.60
12156;DHT22;6141;49.092;8.516;2023-06-05T12:34:40;28.40;8.30
12156;DHT22;6141;49.092;8.516;2023-06-05T12:37:23;28.40;8.30
12156;DHT22;6141;49.092;8.516;2023-06-05T12:39:57;28.50;7.60
12156;DHT22;6141;49.092;8.516;2023-06-05T12:42:27;28.30;6.70
12156;DHT22;6141;49.092;8.516;2023-06-05T12:44:56;28.30;8.30
12156;DHT22;6141;49.092;8.516;2023-06-05T12:47:25;28.40;8.10
12156;DHT22;6141;49.092;8.516;2023-06-05T12:49:54;28.50;6.20
12156;DHT22;6141;49.092;8.516;2023-06-05T12:52:27;28.80;7.50
12156;DHT22;6141;49.092;8.516;2023-06-05T12:54:55;29.10;7.20
12156;DHT22;6141;49.092;8.516;2023-06-05T12:57:24;28.90;7.80
12156;DHT22;6141;49.092;8.516;2023-06-05T12:59:54;28.80;8.00
12156;DHT22;6141;49.092;8.516;2023-06-05T13:02:23;28.90;6.90
12156;DHT22;6141;49.092;8.516;2023-06-05T13:04:53;28.90;7.60
12156;DHT22;6141;49.092;8.516;2023-06-05T13:07:22;28.90;7.00
12156;DHT22;6141;49.092;8.516;2023-06-05T13:09:52;29.00;6.50
12156;DHT22;6141;49.092;8.516;2023-06-05T13:12:22;29.10;5.10
12156;DHT22;6141;49.092;8.516;2023-06-05T13:14:51;29.20;6.00
12156;DHT22;6141;49.092;8.516;2023-06-05T13:17:20;29.40;4.30
12156;DHT22;6141;49.092;8.516;2023-06-05T13:19:50;29.50;5.60
12156;DHT22;6141;49.092;8.516;2023-06-05T13:22:18;29.10;5.60
12156;DHT22;6141;49.092;8.516;2023-06-05T13:24:47;29.20;5.20
12156;DHT22;6141;49.092;8.516;2023-06-05T13:27:18;29.50;6.80
12156;DHT22;6141;49.092;8.516;2023-06-05T13:29:48;29.60;4.50
12156;DHT22;6141;49.092;8.516;2023-06-05T13:32:16;29.40;4.40
12156;DHT22;6141;49.092;8.516;2023-06-05T13:34:46;28.90;6.00
12156;DHT22;6141;49.092;8.516;2023-06-05T13:37:14;28.70;6.00
12156;DHT22;6141;49.092;8.516;2023-06-05T13:39:44;28.70;4.70
12156;DHT22;6141;49.092;8.516;2023-06-05T13:42:13;28.80;6.00
12156;DHT22;6141;49.092;8.516;2023-06-05T13:44:43;29.00;4.50
12156;DHT22;6141;49.092;8.516;2023-06-05T13:47:12;29.20;6.40
12156;DHT22;6141;49.092;8.516;2023-06-05T13:49:40;29.40;6.20
12156;DHT22;6141;49.092;8.516;2023-06-05T13:52:09;29.30;5.50
12156;DHT22;6141;49.092;8.516;2023-06-05T13:54:38;29.00;4.10
12156;DHT22;6141;49.092;8.516;2023-06-05T13:57:08;29.00;5.20
12156;DHT22;6141;49.092;8.516;2023-06-05T13:59:37;29.10;5.70
12156;DHT22;6141;49.092;8.516;2023-06-05T14:02:07;29.20;5.30
12156;DHT22;6141;49.092;8.516;2023-06-05T14:04:36;29.50;5.20
12156;DHT22;6141;49.092;8.516;2023-06-05T14:07:05;29.30;3.70
12156;DHT22;6141;49.092;8.516;2023-06-05T14:09:34;29.20;5.50
12156;DHT22;6141;49.092;8.516;2023-06-05T14:12:03;28.90;4.90
12156;DHT22;6141;49.092;8.516;2023-06-05T14:14:32;29.00;3.00
12156;DHT22;6141;49.092;8.516;2023-06-05T14:17:00;28.80;3.30
12156;DHT22;6141;49.092;8.516;2023-06-05T14:19:30;29.10;4.70
12156;DHT22;6141;49.092;8.516;2023-06-05T14:21:59;28.90;2.70
12156;DHT22;6141;49.092;8.516;2023-06-05T14:24:28;28.90;2.90
12156;DHT22;6141;49.092;8.516;2023-06-05T14:26:56;28.90;1.30
12156;DHT22;6141;49.092;8.516;2023-06-05T14:29:25;28.90;4.30
12156;DHT22;6141;49.092;8.516;2023-06-05T14:31:54;28.80;4.40
12156;DHT22;6141;49.092;8.516;2023-06-05T14:34:23;28.60;2.70
12156;DHT22;6141;49.092;8.516;2023-06-05T14:36:52;28.80;5.50
12156;DHT22;6141;49.092;8.516;2023-06-05T14:39:22;28.80;2.90
12156;DHT22;6141;49.092;8.516;2023-06-05T14:41:55;28.50;2.70
12156;DHT22;6141;49.092;8.516;2023-06-05T14:44:23;28.60;3.00
12156;DHT22;6141;49.092;8.516;2023-06-05T14:46:54;28.60;3.80
12156;DHT22;6141;49.092;8.516;2023-06-05T14:49:25;28.70;3.60
12156;DHT22;6141;49.092;8.516;2023-06-05T14:51:56;28.70;4.00
12156;DHT22;6141;49.092;8.516;2023-06-05T14:54:25;28.80;4.10
12156;DHT22;6141;49.092;8.516;2023-06-05T14:56:53;29.00;3.00
12156;DHT22;6141;49.092;8.516;2023-06-05T14:59:22;29.20;3.10
12156;DHT22;6141;49.092;8.516;2023-06-05T15:01:55;29.30;3.70
12156;DHT22;6141;49.092;8.516;2023-06-05T15:04:34;29.20;3.90
12156;DHT22;6141;49.092;8.516;2023-06-05T15:07:12;29.10;3.10
12156;DHT22;6141;49.092;8.516;2023-06-05T15:09:45;29.10;3.00
12156;DHT22;6141;49.092;8.516;2023-06-05T15:12:15;29.20;3.10
12156;DHT22;6141;49.092;8.516;2023-06-05T15:14:43;29.00;2.30
12156;DHT22;6141;49.092;8.516;2023-06-05T15:17:16;28.80;2.90
12156;DHT22;6141;49.092;8.516;2023-06-05T15:19:46;28.70;2.40
12156;DHT22;6141;49.092;8.516;2023-06-05T15:22:17;28.50;3.70
12156;DHT22;6141;49.092;8.516;2023-06-05T15:24:46;28.80;3.50
12156;DHT22;6141;49.092;8.516;2023-06-05T15:27:16;28.70;3.80
12156;DHT22;6141;49.092;8.516;2023-06-05T15:29:45;28.70;4.30
12156;DHT22;6141;49.092;8.516;2023-06-05T15:32:13;28.50;4.10
12156;DHT22;6141;49.092;8.516;2023-06-05T15:34:47;28.50;4.40
12156;DHT22;6141;49.092;8.516;2023-06-05T15:37:17;28.50;4.60
12156;DHT22;6141;49.092;8.516;2023-06-05T15:39:45;28.40;5.20
12156;DHT22;6141;49.092;8.516;2023-06-05T15:42:18;28.30;3.50
12156;DHT22;6141;49.092;8.516;2023-06-05T15:44:46;28.30;5.20
12156;DHT22;6141;49.092;8.516;2023-06-05T15:47:15;28.40;4.80
12156;DHT22;6141;49.092;8.516;2023-06-05T15:49:44;28.60;3.80
12156;DHT22;6141;49.092;8.516;2023-06-05T15:52:13;28.80;3.50
12156;DHT22;6141;49.092;8.516;2023-06-05T15:54:43;28.70;4.40
12156;DHT22;6141;49.092;8.516;2023-06-05T15:57:21;28.30;4.00
12156;DHT22;6141;49.092;8.516;2023-06-05T15:59:52;28.20;3.70
12156;DHT22;6141;49.092;8.516;2023-06-05T16:02:21;28.40;5.20
12156;DHT22;6141;49.092;8.516;2023-06-05T16:05:13;28.40;3.20
12156;DHT22;6141;49.092;8.516;2023-06-05T16:07:47;28.10;4.20
12156;DHT22;6141;49.092;8.516;2023-06-05T16:10:18;28.10;4.30
12156;DHT22;6141;49.092;8.516;2023-06-05T16:12:47;28.00;4.70
12156;DHT22;6141;49.092;8.516;2023-06-05T16:15:16;28.00;4.20
12156;DHT22;6141;49.092;8.516;2023-06-05T16:17:46;28.30;5.50